createdAt,value
2018-06-24T00:01:46.454Z,1.30
2018-06-24T00:04:13.883Z,1.30
2018-06-24T00:06:41.295Z,1.50
2018-06-24T00:09:09.821Z,1.30
2018-06-24T00:11:37.379Z,1.27
2018-06-24T00:14:04.828Z,1.50
2018-06-24T00:16:32.231Z,1.40
2018-06-24T00:18:59.747Z,1.20
2018-06-24T00:21:27.181Z,1.40
2018-06-24T00:23:54.635Z,1.57
2018-06-24T00:26:22.123Z,1.20
2018-06-24T00:28:49.856Z,1.53
2018-06-24T00:31:17.402Z,1.57
2018-06-24T00:33:44.802Z,1.50
2018-06-24T00:36:12.227Z,1.67
2018-06-24T00:38:39.682Z,1.57
2018-06-24T00:41:07.099Z,1.60
2018-06-24T00:43:34.491Z,1.60
2018-06-24T00:46:01.895Z,1.80
2018-06-24T00:48:29.437Z,1.80
2018-06-24T00:50:57.055Z,1.60
2018-06-24T00:53:24.455Z,1.50
2018-06-24T00:55:51.927Z,1.60
2018-06-24T00:58:19.424Z,1.53
2018-06-24T01:00:46.813Z,1.40
2018-06-24T01:03:14.277Z,1.50
2018-06-24T01:05:41.672Z,1.50
2018-06-24T01:08:09.169Z,1.57
2018-06-24T01:10:36.643Z,1.40
2018-06-24T01:13:04.072Z,1.50
2018-06-24T01:15:31.476Z,1.50
2018-06-24T01:17:59.507Z,1.47
2018-06-24T01:20:27.978Z,1.47
2018-06-24T01:22:56.059Z,1.70
2018-06-24T01:25:23.483Z,1.87
2018-06-24T01:27:51.061Z,1.67
2018-06-24T01:30:18.440Z,1.53
2018-06-24T01:32:45.924Z,1.60
2018-06-24T01:35:13.427Z,1.60
2018-06-24T01:37:40.839Z,1.50
2018-06-24T01:40:08.268Z,1.70
2018-06-24T01:42:35.756Z,1.40
2018-06-24T01:45:03.560Z,1.63
2018-06-24T01:47:31.007Z,1.60
2018-06-24T01:49:59.038Z,1.60
2018-06-24T01:52:26.496Z,1.57
2018-06-24T01:54:53.921Z,1.50
2018-06-24T01:57:21.384Z,1.53
2018-06-24T01:59:48.784Z,1.63
2018-06-24T02:02:16.322Z,1.60
2018-06-24T02:04:43.747Z,1.57
2018-06-24T02:07:11.175Z,1.53
2018-06-24T02:09:38.683Z,1.67
2018-06-24T02:12:06.432Z,1.50
2018-06-24T02:14:34.187Z,1.50
2018-06-24T02:17:01.641Z,1.47
2018-06-24T02:19:29.185Z,1.80
2018-06-24T02:21:56.599Z,1.57
2018-06-24T02:24:24.108Z,1.60
2018-06-24T02:26:51.776Z,1.70
2018-06-24T02:29:19.183Z,1.50
2018-06-24T02:31:46.619Z,1.27
2018-06-24T02:34:14.035Z,1.57
2018-06-24T02:36:41.434Z,1.57
2018-06-24T02:39:10.623Z,1.60
2018-06-24T02:41:38.691Z,1.90
2018-06-24T02:44:06.449Z,1.53
2018-06-24T02:46:33.920Z,1.50
2018-06-24T02:49:01.859Z,1.50
2018-06-24T02:51:29.430Z,1.40
2018-06-24T02:53:56.933Z,1.37
2018-06-24T02:56:24.722Z,1.37
2018-06-24T02:58:52.127Z,1.80
2018-06-24T03:01:19.576Z,1.50
2018-06-24T03:03:47.015Z,1.60
2018-06-24T03:06:14.467Z,1.63
2018-06-24T03:08:41.923Z,1.50
2018-06-24T03:11:10.079Z,1.50
2018-06-24T03:13:37.507Z,1.50
2018-06-24T03:16:04.931Z,1.50
2018-06-24T03:18:32.331Z,1.70
2018-06-24T03:20:59.737Z,1.60
2018-06-24T03:23:27.176Z,1.60
2018-06-24T03:25:54.561Z,1.70
2018-06-24T03:28:22.205Z,1.60
2018-06-24T03:30:49.678Z,1.70
2018-06-24T03:33:17.108Z,1.70
2018-06-24T03:35:44.647Z,1.70
2018-06-24T03:38:12.069Z,1.90
2018-06-24T03:40:39.478Z,1.60
2018-06-24T03:43:06.855Z,1.40
2018-06-24T03:45:34.421Z,1.80
2018-06-24T03:48:01.847Z,1.50
2018-06-24T03:50:29.343Z,1.60
2018-06-24T03:52:56.845Z,1.60
2018-06-24T03:55:24.233Z,1.50
2018-06-24T03:57:52.376Z,1.70
2018-06-24T04:00:19.792Z,1.70
2018-06-24T04:02:47.200Z,1.80
2018-06-24T04:05:14.666Z,1.60
2018-06-24T04:07:42.103Z,1.40
2018-06-24T04:10:09.600Z,2.00
2018-06-24T04:12:36.975Z,1.80
2018-06-24T04:15:04.515Z,1.60
2018-06-24T04:17:31.955Z,1.70
2018-06-24T04:19:59.395Z,1.70
2018-06-24T04:22:26.883Z,1.90
2018-06-24T04:24:54.396Z,1.60
2018-06-24T04:27:21.812Z,1.67
2018-06-24T04:29:49.223Z,1.53
2018-06-24T04:32:16.767Z,1.53
2018-06-24T04:34:44.445Z,1.43
2018-06-24T04:37:11.987Z,1.60
2018-06-24T04:39:39.381Z,1.43
2018-06-24T04:42:06.907Z,1.93
2018-06-24T04:44:34.308Z,1.70
2018-06-24T04:47:01.731Z,1.37
2018-06-24T04:49:29.115Z,1.50
2018-06-24T04:51:56.672Z,1.50
2018-06-24T04:54:24.115Z,1.43
2018-06-24T04:56:51.573Z,1.70
2018-06-24T04:59:18.986Z,3.03
2018-06-24T05:01:46.556Z,3.43
2018-06-24T05:04:13.969Z,1.50
2018-06-24T05:06:41.415Z,1.50
2018-06-24T05:09:10.399Z,1.40
2018-06-24T05:11:37.802Z,1.40
2018-06-24T05:14:05.334Z,1.50
2018-06-24T05:16:33.062Z,1.23
2018-06-24T05:19:00.539Z,1.30
2018-06-24T05:21:27.966Z,1.20
2018-06-24T05:23:55.396Z,1.27
2018-06-24T05:26:23.064Z,1.00
2018-06-24T05:28:50.451Z,1.20
2018-06-24T05:31:18.187Z,1.30
2018-06-24T05:33:45.887Z,1.40
2018-06-24T05:36:13.280Z,1.30
2018-06-24T05:38:40.671Z,1.30
2018-06-24T05:41:08.263Z,1.40
2018-06-24T05:43:35.695Z,1.27
2018-06-24T05:46:03.101Z,1.30
2018-06-24T05:48:31.052Z,1.37
2018-06-24T05:50:58.459Z,1.10
2018-06-24T05:53:25.913Z,1.50
2018-06-24T05:55:53.370Z,1.30
2018-06-24T05:58:20.929Z,1.37
2018-06-24T06:00:48.393Z,1.20
2018-06-24T06:03:15.807Z,1.30
2018-06-24T06:05:43.256Z,1.00
2018-06-24T06:08:10.643Z,1.10
2018-06-24T06:10:38.059Z,1.10
2018-06-24T06:13:05.891Z,1.10
2018-06-24T06:15:33.307Z,1.07
2018-06-24T06:18:00.890Z,1.10
2018-06-24T06:20:28.347Z,1.00
2018-06-24T06:22:55.980Z,1.20
2018-06-24T06:25:23.403Z,1.20
2018-06-24T06:27:50.808Z,0.80
2018-06-24T06:30:18.437Z,0.97
2018-06-24T06:32:45.834Z,0.97
2018-06-24T06:35:13.314Z,0.90
2018-06-24T06:37:40.871Z,1.00
2018-06-24T06:40:08.583Z,1.10
2018-06-24T06:42:35.971Z,0.70
2018-06-24T06:45:03.631Z,0.77
2018-06-24T06:47:30.987Z,1.00
2018-06-24T06:49:58.367Z,1.00
2018-06-24T06:52:26.134Z,1.00
2018-06-24T06:54:53.611Z,0.90
2018-06-24T06:57:21.079Z,0.83
2018-06-24T06:59:48.577Z,0.90
2018-06-24T07:02:15.979Z,0.90
2018-06-24T07:04:43.347Z,1.00
2018-06-24T07:07:10.878Z,0.80
2018-06-24T07:09:38.350Z,0.90
2018-06-24T07:12:05.864Z,0.90
2018-06-24T07:14:33.318Z,0.73
2018-06-24T07:17:00.751Z,0.73
2018-06-24T07:19:28.457Z,0.83
2018-06-24T07:21:55.835Z,0.80
2018-06-24T07:24:23.290Z,0.90
2018-06-24T07:26:50.683Z,0.80
2018-06-24T07:29:18.365Z,0.73
2018-06-24T07:31:45.772Z,0.70
2018-06-24T07:34:13.142Z,0.73
2018-06-24T07:36:40.655Z,0.97
2018-06-24T07:39:09.105Z,0.67
2018-06-24T07:41:36.623Z,0.70
2018-06-24T07:44:04.338Z,0.90
2018-06-24T07:46:31.742Z,1.00
2018-06-24T07:48:59.379Z,0.70
2018-06-24T07:51:28.623Z,0.70
2018-06-24T07:53:56.476Z,0.80
2018-06-24T07:56:24.343Z,0.70
2018-06-24T07:58:52.144Z,0.80
2018-06-24T08:01:19.575Z,0.60
2018-06-24T08:03:47.313Z,0.70
2018-06-24T08:06:14.932Z,0.93
2018-06-24T08:08:42.898Z,0.70
2018-06-24T08:11:10.629Z,0.63
2018-06-24T08:13:38.473Z,0.80
2018-06-24T08:16:05.912Z,1.00
2018-06-24T08:18:33.351Z,0.70
2018-06-24T08:21:00.827Z,0.90
2018-06-24T08:23:28.223Z,0.70
2018-06-24T08:25:55.636Z,0.63
2018-06-24T08:28:24.323Z,0.80
2018-06-24T08:30:52.715Z,0.80
2018-06-24T08:33:20.225Z,0.57
2018-06-24T08:35:47.626Z,0.70
2018-06-24T08:38:15.091Z,0.60
2018-06-24T08:40:42.606Z,0.60
2018-06-24T08:43:10.004Z,0.70
2018-06-24T08:45:37.456Z,0.70
2018-06-24T08:48:04.936Z,0.60
2018-06-24T08:50:32.343Z,0.70
2018-06-24T08:52:59.769Z,0.50
2018-06-24T08:55:27.273Z,0.60
2018-06-24T08:57:54.652Z,0.70
2018-06-24T09:00:22.096Z,0.60
2018-06-24T09:02:49.467Z,0.70
2018-06-24T09:05:16.843Z,0.60
2018-06-24T09:07:44.243Z,0.57
2018-06-24T09:10:11.727Z,0.70
2018-06-24T09:12:39.144Z,0.80
2018-06-24T09:15:06.635Z,0.60
2018-06-24T09:17:34.068Z,0.80
2018-06-24T09:20:01.536Z,0.70
2018-06-24T09:22:29.003Z,0.70
2018-06-24T09:24:56.443Z,0.70
2018-06-24T09:27:23.895Z,0.60
2018-06-24T09:29:51.686Z,0.60
2018-06-24T09:32:19.123Z,0.70
2018-06-24T09:34:46.523Z,0.63
2018-06-24T09:37:14.623Z,0.80
2018-06-24T09:39:42.111Z,0.60
2018-06-24T09:42:09.563Z,0.43
2018-06-24T09:44:36.982Z,0.53
2018-06-24T09:47:04.467Z,0.60
2018-06-24T09:49:32.243Z,0.60
2018-06-24T09:51:59.658Z,0.70
2018-06-24T09:54:28.427Z,0.67
2018-06-24T09:56:55.841Z,0.80
2018-06-24T09:59:23.928Z,0.70
2018-06-24T10:01:51.445Z,0.80
2018-06-24T10:04:18.819Z,0.70
2018-06-24T10:06:46.307Z,0.67
2018-06-24T10:09:13.711Z,0.50
2018-06-24T10:11:41.099Z,0.77
2018-06-24T10:14:08.673Z,0.70
2018-06-24T10:16:36.423Z,0.80
2018-06-24T10:19:03.815Z,0.73
2018-06-24T10:21:31.223Z,0.60
2018-06-24T10:23:58.806Z,0.70
2018-06-24T10:26:26.179Z,0.60
2018-06-24T10:28:53.697Z,0.70
2018-06-24T10:31:21.175Z,0.63
2018-06-24T10:33:48.648Z,0.60
2018-06-24T10:36:16.055Z,0.50
2018-06-24T10:38:43.559Z,0.60
2018-06-24T10:41:11.648Z,0.70
2018-06-24T10:43:39.003Z,0.60
2018-06-24T10:46:06.531Z,0.57
2018-06-24T10:48:33.899Z,0.60
2018-06-24T10:51:01.344Z,0.70
2018-06-24T10:53:28.783Z,0.67
2018-06-24T10:55:56.197Z,0.60
2018-06-24T10:58:23.581Z,0.60
2018-06-24T11:00:51.066Z,0.50
2018-06-24T11:03:18.453Z,0.80
2018-06-24T11:05:45.839Z,0.80
2018-06-24T11:08:13.246Z,0.60
2018-06-24T11:10:40.767Z,0.60
2018-06-24T11:13:08.317Z,0.50
2018-06-24T11:15:35.751Z,0.70
2018-06-24T11:18:03.147Z,0.73
2018-06-24T11:20:30.604Z,0.60
2018-06-24T11:22:58.023Z,0.70
2018-06-24T11:25:25.511Z,0.60
2018-06-24T11:27:52.967Z,0.60
2018-06-24T11:30:21.019Z,0.60
2018-06-24T11:32:48.495Z,0.73
2018-06-24T11:35:15.875Z,0.80
2018-06-24T11:37:43.432Z,0.70
2018-06-24T11:40:10.954Z,0.70
2018-06-24T11:42:38.331Z,0.80
2018-06-24T11:45:05.811Z,0.70
2018-06-24T11:47:33.343Z,0.70
2018-06-24T11:50:00.817Z,0.70
2018-06-24T11:52:28.276Z,0.70
2018-06-24T11:54:55.647Z,0.60
2018-06-24T11:57:23.263Z,0.50
2018-06-24T11:59:51.263Z,0.60
2018-06-24T12:02:18.634Z,0.67
2018-06-24T12:04:46.152Z,0.60
2018-06-24T12:07:13.653Z,0.70
2018-06-24T12:09:41.094Z,0.63
2018-06-24T12:12:08.510Z,0.70
2018-06-24T12:14:36.023Z,0.60
2018-06-24T12:17:03.439Z,0.60
2018-06-24T12:19:30.891Z,0.73
2018-06-24T12:21:58.375Z,0.70
2018-06-24T12:24:25.891Z,0.60
2018-06-24T12:26:53.302Z,0.57
2018-06-24T12:29:20.741Z,1.00
2018-06-24T12:31:48.131Z,0.70
2018-06-24T12:34:16.255Z,0.63
2018-06-24T12:36:43.731Z,0.70
2018-06-24T12:39:14.091Z,0.90
2018-06-24T12:41:41.700Z,0.57
2018-06-24T12:44:10.128Z,0.70
2018-06-24T12:46:37.854Z,0.57
2018-06-24T12:49:06.255Z,0.73
2018-06-24T12:51:34.000Z,0.50
2018-06-24T12:56:42.744Z,0.47
2018-06-24T12:59:10.454Z,0.67
2018-06-24T13:01:37.940Z,0.73
2018-06-24T13:04:05.656Z,0.60
2018-06-24T13:06:33.019Z,0.70
2018-06-24T13:09:00.436Z,0.80
2018-06-24T13:11:27.850Z,0.50
2018-06-24T13:13:55.535Z,0.50
2018-06-24T13:16:23.603Z,0.70
2018-06-24T13:18:51.138Z,0.70
2018-06-24T13:21:18.559Z,0.63
2018-06-24T13:23:45.977Z,0.60
2018-06-24T13:26:13.455Z,0.60
2018-06-24T13:28:40.888Z,0.60
2018-06-24T13:31:09.035Z,0.70
2018-06-24T13:33:36.447Z,0.60
2018-06-24T13:36:03.887Z,0.70
2018-06-24T13:38:31.291Z,0.60
2018-06-24T13:40:59.113Z,0.60
2018-06-24T13:43:26.543Z,0.60
2018-06-24T13:45:54.630Z,0.50
2018-06-24T13:48:22.418Z,0.50
2018-06-24T13:50:50.151Z,0.60
2018-06-24T13:53:17.934Z,0.60
2018-06-24T13:55:45.379Z,0.70
2018-06-24T13:58:12.823Z,0.50
2018-06-24T14:00:40.283Z,0.57
2018-06-24T14:03:07.759Z,0.67
2018-06-24T14:05:35.151Z,0.60
2018-06-24T14:08:02.701Z,0.50
2018-06-24T14:10:30.138Z,0.60
2018-06-24T14:12:58.180Z,0.60
2018-06-24T14:15:25.562Z,0.60
2018-06-24T14:17:53.119Z,1.00
2018-06-24T14:20:21.192Z,0.57
2018-06-24T14:22:48.701Z,0.60
2018-06-24T14:25:16.175Z,0.60
2018-06-24T14:27:43.846Z,0.60
2018-06-24T14:30:11.291Z,0.70
2018-06-24T14:32:38.776Z,0.50
2018-06-24T14:35:06.204Z,0.77
2018-06-24T14:37:33.579Z,0.60
2018-06-24T14:40:01.155Z,0.50
2018-06-24T14:42:28.592Z,0.60
2018-06-24T14:44:55.975Z,0.50
2018-06-24T14:47:23.520Z,0.60
2018-06-24T14:49:50.991Z,0.53
2018-06-24T14:52:18.367Z,0.50
2018-06-24T14:54:45.892Z,0.50
2018-06-24T14:57:13.320Z,0.70
2018-06-24T14:59:40.791Z,0.70
2018-06-24T15:02:08.263Z,0.63
2018-06-24T15:04:35.687Z,0.70
2018-06-24T15:07:03.153Z,0.60
2018-06-24T15:09:30.636Z,0.60
2018-06-24T15:11:58.033Z,0.50
2018-06-24T15:14:25.527Z,0.43
2018-06-24T15:16:52.952Z,0.50
2018-06-24T15:19:20.358Z,0.63
2018-06-24T15:21:47.924Z,0.70
2018-06-24T15:24:15.783Z,0.90
2018-06-24T15:26:43.151Z,0.60
2018-06-24T15:29:10.600Z,0.60
2018-06-24T15:31:38.045Z,0.60
2018-06-24T15:34:05.511Z,0.70
2018-06-24T15:36:33.023Z,0.73
2018-06-24T15:39:00.412Z,0.53
2018-06-24T15:41:27.866Z,0.70
2018-06-24T15:43:55.335Z,0.50
2018-06-24T15:46:22.779Z,0.60
2018-06-24T15:48:50.251Z,0.70
2018-06-24T15:51:19.193Z,0.50
2018-06-24T15:53:46.925Z,0.40
2018-06-24T15:56:14.303Z,0.57
2018-06-24T15:58:41.924Z,0.60
2018-06-24T16:01:09.355Z,0.40
2018-06-24T16:03:36.816Z,0.60
2018-06-24T16:06:04.244Z,0.50
2018-06-24T16:08:31.651Z,0.50
2018-06-24T16:10:59.496Z,0.40
2018-06-24T16:13:27.995Z,0.30
2018-06-24T16:15:55.366Z,0.50
2018-06-24T16:18:22.783Z,0.40
2018-06-24T16:20:50.373Z,0.50
2018-06-24T16:23:18.315Z,0.47
2018-06-24T16:25:45.708Z,0.60
2018-06-24T16:28:13.227Z,0.50
2018-06-24T16:30:40.771Z,0.40
2018-06-24T16:33:08.221Z,0.40
2018-06-24T16:35:35.936Z,0.50
2018-06-24T16:38:03.320Z,0.50
2018-06-24T16:40:30.816Z,0.50
2018-06-24T16:42:58.221Z,0.60
2018-06-24T16:45:26.647Z,0.80
2018-06-24T16:47:54.080Z,0.60
2018-06-24T16:50:21.498Z,0.40
2018-06-24T16:52:48.905Z,0.40
2018-06-24T16:55:16.327Z,0.50
2018-06-24T16:57:43.963Z,0.53
2018-06-24T17:00:11.399Z,0.50
2018-06-24T17:02:38.891Z,0.40
2018-06-24T17:05:06.390Z,0.53
2018-06-24T17:07:33.767Z,0.63
2018-06-24T17:10:01.528Z,0.40
2018-06-24T17:12:29.395Z,0.40
2018-06-24T17:14:57.064Z,0.50
2018-06-24T17:17:24.465Z,0.47
2018-06-24T17:19:51.985Z,0.43
2018-06-24T17:22:19.430Z,0.60
2018-06-24T17:24:46.867Z,0.50
2018-06-24T17:27:14.576Z,0.60
2018-06-24T17:29:41.959Z,0.60
2018-06-24T17:32:09.645Z,0.60
2018-06-24T17:34:37.665Z,0.70
2018-06-24T17:37:05.091Z,0.60
2018-06-24T17:39:32.587Z,0.53
2018-06-24T17:42:00.392Z,0.50
2018-06-24T17:44:28.076Z,0.70
2018-06-24T17:46:55.463Z,0.50
2018-06-24T17:49:22.895Z,0.77
2018-06-24T17:51:50.465Z,0.50
2018-06-24T17:54:18.233Z,0.60
2018-06-24T17:56:45.665Z,0.60
2018-06-24T17:59:13.118Z,0.60
2018-06-24T18:01:40.599Z,0.73
2018-06-24T18:04:08.060Z,0.60
2018-06-24T18:06:35.928Z,0.60
2018-06-24T18:09:03.974Z,0.60
2018-06-24T18:11:31.659Z,0.60
2018-06-24T18:13:59.036Z,0.70
2018-06-24T18:16:26.447Z,0.60
2018-06-24T18:18:54.040Z,0.70
2018-06-24T18:21:21.419Z,0.67
2018-06-24T18:23:48.923Z,0.50
2018-06-24T18:26:17.075Z,0.60
2018-06-24T18:28:44.455Z,0.40
2018-06-24T18:31:11.868Z,0.50
2018-06-24T18:33:39.695Z,0.57
2018-06-24T18:36:07.128Z,0.67
2018-06-24T18:38:35.351Z,0.60
2018-06-24T18:41:03.045Z,0.50
2018-06-24T18:43:30.477Z,0.50
2018-06-24T18:45:57.907Z,0.40
2018-06-24T18:48:25.335Z,0.57
2018-06-24T18:50:53.124Z,0.70
2018-06-24T18:53:20.595Z,0.50
2018-06-24T18:55:48.049Z,0.60
2018-06-24T18:58:15.439Z,0.50
2018-06-24T19:00:42.923Z,0.53
2018-06-24T19:03:10.814Z,0.67
2018-06-24T19:05:38.139Z,0.60
2018-06-24T19:08:05.777Z,0.57
2018-06-24T19:10:33.608Z,0.57
2018-06-24T19:13:01.127Z,0.70
2018-06-24T19:15:28.523Z,0.57
2018-06-24T19:17:55.952Z,0.53
2018-06-24T19:20:23.503Z,0.70
2018-06-24T19:22:50.907Z,0.60
2018-06-24T19:25:19.170Z,0.70
2018-06-24T19:27:46.848Z,0.63
2018-06-24T19:30:14.249Z,0.60
2018-06-24T19:32:41.815Z,0.80
2018-06-24T19:35:09.309Z,0.60
2018-06-24T19:37:36.931Z,0.60
2018-06-24T19:40:04.429Z,0.60
2018-06-24T19:42:32.740Z,0.77
2018-06-24T19:45:00.231Z,0.60
2018-06-24T19:47:28.377Z,0.83
2018-06-24T19:49:56.128Z,0.87
2018-06-24T19:52:23.787Z,0.70
2018-06-24T19:54:51.488Z,0.60
2018-06-24T19:57:19.051Z,0.87
2018-06-24T19:59:46.607Z,0.53
2018-06-24T20:02:14.100Z,0.60
2018-06-24T20:04:41.599Z,0.70
2018-06-24T20:07:09.363Z,0.80
2018-06-24T20:09:36.771Z,0.70
2018-06-24T20:12:04.147Z,0.60
2018-06-24T20:14:31.656Z,0.90
2018-06-24T20:16:59.079Z,0.80
2018-06-24T20:19:26.478Z,0.70
2018-06-24T20:21:53.948Z,0.77
2018-06-24T20:24:21.458Z,1.00
2018-06-24T20:26:48.871Z,0.77
2018-06-24T20:29:16.313Z,0.70
2018-06-24T20:31:43.775Z,0.80
2018-06-24T20:34:11.170Z,0.80
2018-06-24T20:36:39.276Z,1.00
2018-06-24T20:39:07.383Z,0.73
2018-06-24T20:41:34.771Z,0.60
2018-06-24T20:44:02.177Z,0.97
2018-06-24T20:46:29.951Z,0.73
2018-06-24T20:48:57.565Z,0.80
2018-06-24T20:51:24.987Z,0.77
2018-06-24T20:53:52.477Z,0.90
2018-06-24T20:56:19.904Z,1.00
2018-06-24T20:58:47.331Z,0.60
2018-06-24T21:01:14.703Z,0.90
2018-06-24T21:03:42.215Z,0.80
2018-06-24T21:06:09.707Z,1.20
2018-06-24T21:08:37.131Z,1.07
2018-06-24T21:11:04.676Z,0.70
2018-06-24T21:13:32.103Z,0.80
2018-06-24T21:15:59.515Z,0.80
2018-06-24T21:18:26.996Z,0.83
2018-06-24T21:20:54.419Z,0.80
2018-06-24T21:23:22.210Z,0.90
2018-06-24T21:25:49.739Z,0.80
2018-06-24T21:28:17.159Z,0.90
2018-06-24T21:30:44.535Z,1.00
2018-06-24T21:33:11.907Z,1.00
2018-06-24T21:35:39.699Z,0.97
2018-06-24T21:38:07.239Z,0.80
2018-06-24T21:40:34.690Z,0.90
2018-06-24T21:43:02.177Z,0.80
2018-06-24T21:45:29.621Z,0.70
2018-06-24T21:47:57.055Z,0.90
2018-06-24T21:50:24.491Z,0.73
2018-06-24T21:52:51.995Z,0.90
2018-06-24T21:55:19.391Z,0.80
2018-06-24T21:57:46.920Z,0.80
2018-06-24T22:00:14.611Z,1.00
2018-06-24T22:02:42.011Z,0.90
2018-06-24T22:05:09.595Z,0.90
2018-06-24T22:07:36.984Z,1.10
2018-06-24T22:10:05.092Z,1.00
2018-06-24T22:12:32.888Z,0.87
2018-06-24T22:15:00.602Z,0.97
2018-06-24T22:17:28.383Z,1.10
2018-06-24T22:19:56.179Z,1.20
2018-06-24T22:22:23.692Z,1.03
2018-06-24T22:24:51.359Z,1.30
2018-06-24T22:27:19.511Z,0.90
2018-06-24T22:29:47.199Z,0.93
2018-06-24T22:32:14.659Z,0.80
2018-06-24T22:34:42.147Z,1.00
2018-06-24T22:37:09.575Z,0.90
2018-06-24T22:39:36.999Z,0.90
2018-06-24T22:42:04.576Z,0.90
2018-06-24T22:44:31.992Z,0.97
2018-06-24T22:46:59.441Z,0.80
2018-06-24T22:49:26.917Z,0.70
2018-06-24T22:51:54.360Z,0.70
2018-06-24T22:54:21.856Z,0.70
2018-06-24T22:56:49.312Z,0.70
2018-06-24T23:00:24.026Z,0.70
2018-06-24T23:02:51.505Z,0.70
2018-06-24T23:05:19.270Z,0.70
2018-06-24T23:07:46.712Z,0.70
2018-06-24T23:10:14.776Z,0.80
2018-06-24T23:12:42.644Z,0.80
2018-06-24T23:15:10.825Z,0.63
2018-06-24T23:17:38.681Z,0.70
2018-06-24T23:20:07.029Z,0.80
2018-06-24T23:22:34.499Z,0.80
2018-06-24T23:25:03.306Z,0.70
2018-06-24T23:27:30.785Z,0.80
2018-06-24T23:29:58.489Z,0.70
2018-06-24T23:32:26.006Z,0.70
2018-06-24T23:34:53.436Z,0.70
2018-06-24T23:37:20.905Z,0.90
2018-06-24T23:39:48.420Z,0.90
2018-06-24T23:42:16.109Z,0.80
2018-06-24T23:44:43.574Z,0.80
2018-06-24T23:47:11.345Z,0.87
2018-06-24T23:49:38.778Z,0.80
2018-06-24T23:52:06.464Z,1.07
2018-06-24T23:54:33.909Z,0.80
2018-06-24T23:57:01.321Z,0.90
2018-06-24T23:59:28.744Z,0.87
